Time;durP1;ratioP1;P1;durP2;ratioP2;P2;SDS_P1;SDS_P2;PMS_P1;PMS_P2;Temp;Humidity;BMP_temperature;BMP_pressure;BME280_temperature;BME280_humidity;BME280_pressure;Samples;Min_cycle;Max_cycle;Signal;HPM_P1;HPM_P2
2023/01/09 00:02:07;;;;;;;3.27;2.67;;;1.80;99.90;2.70;95716.00;;;;5076412;28;20430;-86
2023/01/09 00:04:56;;;;;;;3.20;2.27;;;2.00;99.90;2.60;95692.00;;;;5091720;28;20428;-86
2023/01/09 00:07:45;;;;;;;4.00;2.60;;;1.70;99.90;2.60;95691.00;;;;5085270;28;20453;-87
2023/01/09 00:10:34;;;;;;;2.47;2.27;;;1.70;99.90;2.80;95694.00;;;;5089507;28;20417;-87
2023/01/09 00:13:24;;;;;;;2.97;2.77;;;2.30;99.90;3.00;95703.00;;;;5087894;28;20448;-86
2023/01/09 00:16:13;;;;;;;3.47;3.17;;;1.70;99.90;3.10;95707.00;;;;5088664;28;20437;-86
2023/01/09 00:19:02;;;;;;;3.23;2.90;;;1.90;99.90;3.20;95689.00;;;;5088430;28;20479;-87
2023/01/09 00:21:50;;;;;;;5.77;4.70;;;1.80;99.90;2.80;95679.00;;;;5084918;28;20426;-87
2023/01/09 00:24:39;;;;;;;4.67;3.37;;;2.10;99.90;2.80;95681.00;;;;5089010;28;20432;-86
2023/01/09 00:27:31;;;;;;;6.43;3.60;;;1.90;99.90;3.00;95688.00;;;;5088434;28;20453;-87
2023/01/09 00:30:21;;;;;;;6.47;4.60;;;2.00;99.90;3.00;95689.00;;;;5089834;28;20911;-87
2023/01/09 00:33:10;;;;;;;8.63;3.87;;;1.90;99.90;3.20;95675.00;;;;5088931;28;20472;-86
2023/01/09 00:35:59;;;;;;;4.53;4.10;;;2.40;99.90;3.00;95672.00;;;;5087281;28;20456;-86
2023/01/09 00:38:47;;;;;;;5.23;3.40;;;1.90;99.90;3.10;95662.00;;;;5089339;28;20444;-86
2023/01/09 00:41:40;;;;;;;5.17;3.60;;;2.10;99.90;3.10;95658.00;;;;5091768;28;20460;-86
2023/01/09 00:44:33;;;;;;;4.77;3.57;;;1.90;99.90;3.30;95645.00;;;;5092236;28;20464;-87
2023/01/09 00:47:28;;;;;;;5.03;3.30;;;2.00;99.90;3.30;95650.00;;;;5092034;28;20989;-86
2023/01/09 00:50:22;;;;;;;4.67;3.73;;;2.00;99.90;3.00;95648.00;;;;5091494;28;20425;-86
2023/01/09 00:53:16;;;;;;;3.43;2.93;;;1.90;99.90;3.10;95644.00;;;;5089519;28;20927;-86
2023/01/09 00:56:09;;;;;;;3.17;2.87;;;1.90;99.90;3.10;95639.00;;;;5093184;28;20449;-87
2023/01/09 00:58:58;;;;;;;4.47;3.60;;;1.90;99.90;3.20;95638.00;;;;5093235;28;20806;-86
2023/01/09 01:01:46;;;;;;;3.90;3.13;;;2.00;99.90;3.20;95646.00;;;;5092472;28;20425;-87
2023/01/09 01:07:43;;;;;;;5.30;3.20;;;2.00;99.90;3.30;95632.00;;;;5087853;28;20807;-86
2023/01/09 01:10:32;;;;;;;4.80;2.87;;;2.30;99.90;3.10;95624.00;;;;5091808;28;20514;-86
2023/01/09 01:13:21;;;;;;;4.87;3.03;;;2.70;99.90;3.00;95615.00;;;;5092298;28;20797;-87
2023/01/09 01:16:13;;;;;;;4.17;2.73;;;2.20;99.90;2.80;95611.00;;;;5092235;28;20583;-87
2023/01/09 01:19:01;;;;;;;4.67;2.80;;;2.00;99.90;2.70;95595.00;;;;5091205;28;20429;-87
2023/01/09 01:21:52;;;;;;;3.77;3.10;;;2.80;99.90;2.90;95581.00;;;;5092180;28;20509;-87
2023/01/09 01:24:41;;;;;;;4.70;3.03;;;1.80;99.90;2.90;95591.00;;;;5092737;28;20852;-86
2023/01/09 01:27:29;;;;;;;3.60;3.27;;;2.00;99.90;3.10;95581.00;;;;5092288;28;20499;-86
2023/01/09 01:30:19;;;;;;;3.93;3.17;;;1.90;99.90;3.20;95573.00;;;;5093520;28;20410;-86
2023/01/09 01:33:09;;;;;;;4.93;3.37;;;1.90;99.90;3.10;95590.00;;;;5083791;28;20886;-86
2023/01/09 01:36:03;;;;;;;5.40;3.80;;;2.20;99.90;3.20;95586.00;;;;5089786;28;20461;-87
2023/01/09 01:38:53;;;;;;;11.37;3.83;;;1.90;99.90;3.30;95575.00;;;;5090391;28;20429;-87
2023/01/09 01:41:42;;;;;;;5.73;3.23;;;1.90;99.90;2.90;95577.00;;;;5092022;28;20448;-87
2023/01/09 01:45:07;;;;;;;4.10;2.83;;;1.90;99.90;2.40;95570.00;;;;5091692;28;20484;-86
2023/01/09 01:48:03;;;;;;;5.10;3.27;;;1.80;99.90;2.70;95568.00;;;;5092335;28;20437;-86
2023/01/09 01:50:56;;;;;;;5.73;3.23;;;1.70;99.90;3.10;95562.00;;;;5092254;28;20422;-86
2023/01/09 01:53:49;;;;;;;5.83;3.83;;;1.80;99.90;2.90;95571.00;;;;5092202;28;20835;-87
2023/01/09 01:56:44;;;;;;;3.97;2.50;;;2.20;99.90;2.90;95575.00;;;;5089642;28;20993;-87
2023/01/09 01:59:37;;;;;;;6.00;3.47;;;2.70;99.90;2.60;95570.00;;;;5092367;28;20430;-86
2023/01/09 02:02:31;;;;;;;4.67;3.23;;;1.80;99.90;2.70;95563.00;;;;5090503;28;20426;-86
2023/01/09 02:05:20;;;;;;;8.03;3.90;;;1.70;99.90;3.00;95566.00;;;;5091414;28;20436;-87
2023/01/09 02:08:09;;;;;;;8.13;2.97;;;1.80;99.90;2.70;95575.00;;;;5089309;28;20869;-86
2023/01/09 02:10:58;;;;;;;4.50;3.10;;;1.80;99.90;3.00;95568.00;;;;5091177;28;20449;-86
2023/01/09 02:13:48;;;;;;;5.03;3.47;;;1.80;99.90;3.20;95571.00;;;;5081558;28;20417;-86
2023/01/09 02:16:50;;;;;;;3.77;2.67;;;1.80;99.90;3.30;95566.00;;;;5090151;28;20538;-86
2023/01/09 02:20:24;;;;;;;9.23;3.03;;;2.00;99.90;3.20;95555.00;;;;5092123;27;20957;-86
2023/01/09 02:23:55;;;;;;;3.30;2.47;;;2.00;99.90;3.00;95550.00;;;;5090775;28;20432;-86
2023/01/09 02:27:40;;;;;;;6.20;3.87;;;2.00;99.90;3.20;95543.00;;;;5090373;28;20503;-86
2023/01/09 02:30:40;;;;;;;5.87;3.20;;;2.00;99.90;3.40;95546.00;;;;5085060;28;20414;-86
2023/01/09 02:33:48;;;;;;;5.47;3.37;;;2.00;99.90;3.50;95544.00;;;;5090657;28;20491;-87
2023/01/09 02:36:46;;;;;;;5.30;3.10;;;2.10;99.90;3.50;95542.00;;;;5082024;28;20438;-87
2023/01/09 02:39:42;;;;;;;4.83;3.33;;;2.10;99.90;3.50;95537.00;;;;5074063;28;20520;-86
2023/01/09 02:42:34;;;;;;;6.43;3.47;;;2.20;99.90;3.60;95532.00;;;;5090164;28;20424;-87
2023/01/09 02:45:22;;;;;;;5.83;3.40;;;3.30;99.90;3.50;95545.00;;;;5089646;28;20477;-87
2023/01/09 02:48:13;;;;;;;7.73;4.33;;;2.30;99.90;3.50;95549.00;;;;5089781;28;20418;-87
2023/01/09 02:51:12;;;;;;;5.00;3.67;;;2.20;99.90;3.60;95530.00;;;;5091203;28;20953;-87
2023/01/09 02:54:28;;;;;;;5.47;3.20;;;2.30;99.90;3.30;95523.00;;;;5089795;28;20422;-86
2023/01/09 02:57:40;;;;;;;5.53;3.43;;;2.20;99.90;3.40;95528.00;;;;5091348;28;20469;-87
2023/01/09 03:00:37;;;;;;;5.57;3.87;;;2.20;99.90;3.40;95537.00;;;;5090911;28;20816;-87
2023/01/09 03:03:35;;;;;;;6.57;3.60;;;2.20;99.90;3.50;95539.00;;;;5075609;28;20483;-87
2023/01/09 03:06:36;;;;;;;3.53;3.27;;;2.20;99.90;3.60;95530.00;;;;5089689;28;20454;-86
2023/01/09 03:09:29;;;;;;;4.97;3.73;;;2.30;99.90;3.60;95525.00;;;;5088459;28;20930;-87
2023/01/09 03:12:21;;;;;;;4.07;2.97;;;2.30;99.90;3.40;95523.00;;;;5089026;28;20434;-87
2023/01/09 03:15:14;;;;;;;5.20;3.83;;;2.30;99.90;3.20;95513.00;;;;5077665;28;20491;-86
2023/01/09 03:18:06;;;;;;;4.63;3.10;;;2.30;99.90;3.30;95524.00;;;;5089345;28;20436;-87
2023/01/09 03:20:56;;;;;;;3.10;2.40;;;2.30;99.90;3.50;95511.00;;;;5090115;28;20437;-87
2023/01/09 03:23:56;;;;;;;6.50;2.97;;;2.20;99.90;3.50;95513.00;;;;5089648;28;20425;-87
2023/01/09 03:26:45;;;;;;;5.23;3.30;;;2.20;99.90;3.40;95511.00;;;;5083318;28;21036;-87
2023/01/09 03:29:34;;;;;;;4.63;3.23;;;2.20;99.90;3.60;95511.00;;;;5090128;28;20426;-87
2023/01/09 03:32:22;;;;;;;8.57;3.40;;;2.20;99.90;3.50;95503.00;;;;5088871;28;20429;-87
2023/01/09 03:35:11;;;;;;;4.47;2.90;;;2.20;99.90;3.50;95500.00;;;;5089874;28;20483;-86
2023/01/09 03:38:01;;;;;;;3.90;3.20;;;2.30;99.90;3.50;95496.00;;;;5083670;28;20817;-87
2023/01/09 03:40:50;;;;;;;7.03;3.37;;;3.90;99.90;3.60;95485.00;;;;5090496;28;20430;-87
2023/01/09 03:43:39;;;;;;;3.73;3.10;;;3.40;99.90;3.50;95489.00;;;;5082542;28;20442;-87
2023/01/09 03:46:27;;;;;;;4.83;2.97;;;3.10;99.90;3.50;95483.00;;;;5089453;28;20446;-87
2023/01/09 03:49:16;;;;;;;5.83;3.40;;;2.50;99.90;3.60;95467.00;;;;5089472;28;20429;-87
2023/01/09 03:52:05;;;;;;;5.40;3.00;;;2.60;99.90;3.30;95490.00;;;;5090104;28;20429;-87
2023/01/09 03:54:55;;;;;;;5.50;4.13;;;2.40;99.90;3.10;95480.00;;;;5088397;28;20441;-87
2023/01/09 03:57:44;;;;;;;4.57;3.50;;;2.20;99.90;3.50;95469.00;;;;5081831;28;20468;-87
2023/01/09 04:00:33;;;;;;;4.53;2.97;;;2.20;99.90;3.50;95475.00;;;;5079250;28;20429;-86
2023/01/09 04:03:21;;;;;;;4.10;2.97;;;2.20;99.90;3.40;95476.00;;;;5088605;28;20414;-87
2023/01/09 04:06:10;;;;;;;3.73;3.43;;;2.20;99.90;3.20;95458.00;;;;5089918;28;20465;-87
2023/01/09 04:08:59;;;;;;;5.73;3.73;;;2.20;99.90;3.40;95471.00;;;;5089192;28;20422;-87
2023/01/09 04:11:49;;;;;;;6.87;2.73;;;2.30;99.90;3.50;95473.00;;;;5074447;28;21040;-87
2023/01/09 04:14:38;;;;;;;7.40;4.23;;;3.10;99.90;3.70;95466.00;;;;5091708;28;20429;-87
2023/01/09 04:17:27;;;;;;;6.30;3.27;;;2.30;99.90;3.70;95482.00;;;;5093098;28;20826;-87
2023/01/09 04:20:16;;;;;;;5.17;3.70;;;2.50;99.90;3.70;95483.00;;;;5093172;28;20455;-87
2023/01/09 04:23:05;;;;;;;5.87;3.63;;;2.40;99.90;3.80;95488.00;;;;5094477;28;20805;-87
2023/01/09 04:25:53;;;;;;;6.23;2.90;;;2.40;99.90;3.60;95474.00;;;;5093520;28;20473;-87
2023/01/09 04:28:44;;;;;;;6.63;3.33;;;2.40;99.90;3.60;95479.00;;;;5091930;28;20433;-87
2023/01/09 04:31:32;;;;;;;8.33;3.60;;;2.40;99.90;3.60;95468.00;;;;5093488;28;20421;-87
2023/01/09 04:34:24;;;;;;;5.37;3.47;;;2.40;99.90;3.60;95475.00;;;;5079407;28;20800;-87
2023/01/09 04:37:13;;;;;;;3.40;2.77;;;2.40;99.90;3.60;95470.00;;;;5093033;28;20456;-87
2023/01/09 04:40:04;;;;;;;4.63;3.50;;;2.40;99.90;3.70;95477.00;;;;5093477;28;20430;-87
2023/01/09 04:42:53;;;;;;;7.00;3.33;;;2.50;99.90;3.60;95466.00;;;;5093548;28;20429;-87
2023/01/09 04:45:43;;;;;;;4.47;3.47;;;2.40;99.90;3.30;95480.00;;;;5093289;28;20467;-87
2023/01/09 04:48:32;;;;;;;3.67;3.30;;;2.70;99.90;3.50;95478.00;;;;5092783;28;20418;-86
2023/01/09 04:51:21;;;;;;;3.53;3.23;;;3.40;99.90;3.70;95475.00;;;;5093852;28;20805;-86
2023/01/09 04:54:10;;;;;;;4.20;2.90;;;2.40;99.90;3.90;95492.00;;;;5093937;28;20452;-86
2023/01/09 04:57:01;;;;;;;4.27;2.90;;;3.80;99.90;3.90;95487.00;;;;5084025;28;20457;-86
2023/01/09 04:59:49;;;;;;;4.57;3.03;;;2.50;99.90;3.80;95483.00;;;;5090558;28;20449;-86
2023/01/09 05:02:41;;;;;;;8.20;3.10;;;2.50;99.90;3.50;95476.00;;;;5092251;28;20452;-88
2023/01/09 05:05:29;;;;;;;4.23;2.73;;;4.10;99.90;3.50;95480.00;;;;5112395;28;20473;-86
2023/01/09 05:08:18;;;;;;;5.23;2.90;;;2.40;99.90;3.70;95475.00;;;;5108655;28;20441;-87
2023/01/09 05:11:07;;;;;;;3.90;2.67;;;2.50;99.90;3.70;95479.00;;;;5106931;28;20409;-86
2023/01/09 05:13:56;;;;;;;4.27;2.77;;;3.20;99.90;3.80;95472.00;;;;5104390;28;20450;-86
2023/01/09 05:16:44;;;;;;;3.57;2.57;;;3.40;99.90;3.70;95476.00;;;;5104974;28;20498;-85
2023/01/09 05:19:34;;;;;;;2.73;2.43;;;2.50;99.90;3.40;95463.00;;;;5114600;28;20429;-87
2023/01/09 05:22:23;;;;;;;4.80;2.73;;;2.60;99.90;3.30;95466.00;;;;5114868;28;20459;-86
2023/01/09 05:25:12;;;;;;;3.33;2.73;;;2.40;99.90;3.50;95463.00;;;;5115948;28;20493;-86
2023/01/09 05:28:01;;;;;;;4.23;3.27;;;2.40;99.90;3.40;95474.00;;;;5100688;28;20503;-87
2023/01/09 05:30:49;;;;;;;4.47;3.37;;;2.40;99.90;3.40;95462.00;;;;5098155;28;20430;-87
2023/01/09 05:33:38;;;;;;;3.67;2.90;;;3.40;99.90;3.30;95472.00;;;;5093037;28;20510;-87
2023/01/09 05:36:28;;;;;;;4.20;3.50;;;2.90;99.90;3.40;95467.00;;;;5098668;28;20531;-87
2023/01/09 05:39:17;;;;;;;4.63;2.80;;;2.30;99.90;3.60;95473.00;;;;5099117;28;20812;-90
2023/01/09 05:42:06;;;;;;;2.40;2.20;;;2.40;99.90;3.70;95472.00;;;;5096580;28;20543;-87
2023/01/09 05:44:54;;;;;;;2.60;2.23;;;2.40;99.90;3.70;95474.00;;;;5090472;28;20426;-87
2023/01/09 05:47:45;;;;;;;3.03;2.67;;;2.40;99.90;3.70;95473.00;;;;5099506;28;20438;-87
2023/01/09 05:50:33;;;;;;;2.90;2.70;;;2.40;99.90;3.60;95467.00;;;;5090918;28;20462;-86
2023/01/09 05:53:24;;;;;;;4.30;2.97;;;2.40;99.90;3.60;95462.00;;;;5105764;28;20980;-87
2023/01/09 05:56:12;;;;;;;5.43;3.53;;;2.40;99.90;3.70;95475.00;;;;5094877;28;20822;-87
2023/01/09 05:59:01;;;;;;;4.57;2.90;;;2.40;99.90;3.80;95485.00;;;;5093943;28;20442;-88
2023/01/09 06:01:50;;;;;;;7.67;3.53;;;2.40;99.90;3.80;95475.00;;;;5090926;28;20430;-87
2023/01/09 06:04:39;;;;;;;4.73;3.60;;;2.60;99.90;3.80;95471.00;;;;5086770;28;20432;-87
2023/01/09 06:07:27;;;;;;;7.67;3.20;;;2.50;99.90;3.80;95461.00;;;;5086314;28;20848;-87
2023/01/09 06:10:18;;;;;;;6.40;4.13;;;2.50;99.90;3.60;95454.00;;;;5088374;28;20433;-87
2023/01/09 06:13:07;;;;;;;6.20;4.00;;;2.50;99.90;3.70;95445.00;;;;5086140;28;20934;-87
2023/01/09 06:15:55;;;;;;;4.33;3.30;;;2.50;99.90;3.60;95449.00;;;;5092089;28;20810;-88
2023/01/09 06:18:44;;;;;;;4.27;3.87;;;2.40;99.90;3.60;95439.00;;;;5084954;28;20431;-87
2023/01/09 06:21:33;;;;;;;8.30;4.27;;;2.40;99.90;3.40;95443.00;;;;5085615;28;20441;-88
2023/01/09 06:24:22;;;;;;;9.03;5.40;;;2.40;99.90;3.40;95435.00;;;;5089749;28;20449;-87
2023/01/09 06:27:12;;;;;;;4.30;3.87;;;2.30;99.90;3.30;95434.00;;;;5079994;28;20474;-87
2023/01/09 06:30:01;;;;;;;4.23;2.77;;;2.30;99.90;2.70;95431.00;;;;5091624;28;20426;-88
2023/01/09 06:32:50;;;;;;;4.17;3.07;;;2.20;99.90;3.10;95449.00;;;;5090550;28;20441;-88
2023/01/09 06:35:39;;;;;;;4.00;3.30;;;2.20;99.90;3.40;95447.00;;;;5082954;28;20421;-87
2023/01/09 06:38:27;;;;;;;3.33;3.03;;;2.20;99.90;3.40;95453.00;;;;5090182;28;20421;-87
2023/01/09 06:41:16;;;;;;;3.50;2.47;;;2.20;99.90;3.50;95471.00;;;;5090897;28;20809;-87
2023/01/09 06:44:06;;;;;;;4.23;2.80;;;2.70;99.90;3.50;95449.00;;;;5091236;28;20824;-86
2023/01/09 06:46:55;;;;;;;5.07;2.90;;;2.20;99.90;3.40;95469.00;;;;5091043;28;20476;-88
2023/01/09 06:49:44;;;;;;;3.03;2.73;;;3.90;99.90;3.50;95451.00;;;;5090631;28;20469;-88
2023/01/09 06:52:32;;;;;;;3.70;2.30;;;2.20;99.90;3.60;95463.00;;;;5090988;28;20422;-87
2023/01/09 06:55:21;;;;;;;6.23;3.20;;;2.30;99.90;3.50;95463.00;;;;5091661;28;20428;-87
2023/01/09 06:58:10;;;;;;;2.00;1.90;;;2.30;99.90;3.60;95463.00;;;;5090066;28;20425;-88
2023/01/09 07:01:00;;;;;;;3.07;2.73;;;2.30;99.90;3.60;95470.00;;;;5090806;28;20426;-88
2023/01/09 07:03:49;;;;;;;4.20;3.20;;;2.40;99.90;3.70;95465.00;;;;5090306;28;20456;-87
2023/01/09 07:06:38;;;;;;;5.37;3.77;;;3.50;99.90;3.70;95464.00;;;;5090629;28;20477;-88
2023/01/09 07:09:27;;;;;;;5.20;3.37;;;2.40;99.90;3.70;95465.00;;;;5089406;28;20425;-88
2023/01/09 07:12:15;;;;;;;5.83;3.97;;;2.40;99.90;3.80;95467.00;;;;5085020;28;20438;-88
2023/01/09 07:15:05;;;;;;;4.17;3.30;;;2.40;99.90;3.60;95467.00;;;;5078916;28;20417;-88
2023/01/09 07:17:56;;;;;;;3.50;2.70;;;2.40;99.90;3.70;95469.00;;;;5089664;28;20449;-87
2023/01/09 07:20:44;;;;;;;4.57;3.40;;;2.70;99.90;3.80;95481.00;;;;5088135;28;20433;-87
2023/01/09 07:23:33;;;;;;;9.20;2.90;;;2.40;99.90;3.90;95473.00;;;;5089827;28;20934;-89
2023/01/09 07:26:22;;;;;;;5.00;3.40;;;2.50;99.90;3.60;95462.00;;;;5090295;28;20466;-88
2023/01/09 07:29:11;;;;;;;5.20;3.30;;;2.50;99.90;3.40;95473.00;;;;5088833;28;20433;-88
2023/01/09 07:32:00;;;;;;;6.07;3.53;;;2.70;99.90;3.50;95473.00;;;;5088882;28;20958;-87
2023/01/09 07:34:50;;;;;;;7.23;4.33;;;4.00;99.90;3.80;95473.00;;;;5084983;28;20503;-87
2023/01/09 07:37:39;;;;;;;4.60;3.50;;;2.50;99.90;3.90;95485.00;;;;5077371;28;20476;-87
2023/01/09 07:40:28;;;;;;;4.23;3.53;;;2.50;99.90;4.10;95481.00;;;;5082248;28;20444;-88
2023/01/09 07:43:17;;;;;;;3.80;3.43;;;2.60;99.90;4.20;95482.00;;;;5088219;28;20430;-87
2023/01/09 07:46:06;;;;;;;4.00;2.60;;;2.70;99.90;4.10;95483.00;;;;5089042;28;20963;-87
2023/01/09 07:48:54;;;;;;;3.53;3.17;;;2.70;99.90;4.10;95478.00;;;;5085907;28;20422;-88
2023/01/09 07:51:47;;;;;;;4.80;2.63;;;2.80;99.90;4.10;95486.00;;;;5083437;28;20479;-87
2023/01/09 07:54:35;;;;;;;4.70;3.93;;;3.90;99.90;4.10;95490.00;;;;5089420;28;20418;-88
2023/01/09 07:57:24;;;;;;;5.17;3.83;;;4.40;99.90;4.10;95484.00;;;;5074988;28;20894;-87
2023/01/09 08:00:14;;;;;;;5.63;4.13;;;2.90;99.90;4.20;95498.00;;;;5079697;28;20508;-88
2023/01/09 08:03:02;;;;;;;12.80;4.73;;;2.90;99.90;4.20;95495.00;;;;5085308;28;20461;-88
2023/01/09 08:05:51;;;;;;;8.10;4.97;;;4.50;99.90;4.20;95489.00;;;;5084541;28;20253;-87
2023/01/09 08:08:42;;;;;;;5.83;4.20;;;2.90;99.90;4.20;95498.00;;;;5068124;28;20430;-87
2023/01/09 08:11:32;;;;;;;8.20;4.03;;;3.00;99.90;4.50;95494.00;;;;5083727;28;20452;-88
2023/01/09 08:14:20;;;;;;;4.77;3.37;;;3.10;99.90;4.60;95495.00;;;;5078912;28;21092;-88
2023/01/09 08:17:10;;;;;;;5.47;4.10;;;3.10;99.90;4.40;95485.00;;;;5084708;28;20445;-87
2023/01/09 08:19:59;;;;;;;3.03;2.50;;;3.20;99.90;4.30;95486.00;;;;5079877;28;20203;-88
2023/01/09 08:22:52;;;;;;;3.47;3.17;;;3.10;99.90;4.20;95490.00;;;;5088135;28;20448;-87
2023/01/09 08:25:42;;;;;;;4.47;4.03;;;4.10;99.90;4.40;95495.00;;;;5083658;28;20195;-88
2023/01/09 08:28:31;;;;;;;6.37;4.70;;;3.10;99.90;4.70;95487.00;;;;5086858;28;20203;-88
2023/01/09 08:31:20;;;;;;;6.10;3.43;;;3.20;99.90;4.60;95486.00;;;;5076908;28;20202;-88
2023/01/09 08:34:10;;;;;;;3.97;3.37;;;3.20;99.90;4.60;95474.00;;;;5086540;28;20196;-88
2023/01/09 08:36:58;;;;;;;4.93;3.23;;;3.30;99.90;4.70;95470.00;;;;5085211;28;20464;-87
2023/01/09 08:39:47;;;;;;;4.87;3.10;;;3.40;99.90;4.70;95470.00;;;;5089391;28;20422;-88
2023/01/09 08:48:50;;;;;;;4.03;3.60;;;4.00;99.90;5.20;95471.00;;;;5089475;28;20210;-88
2023/01/09 08:51:39;;;;;;;3.70;3.30;;;3.60;99.90;5.30;95466.00;;;;5089206;28;20223;-88
2023/01/09 08:54:27;;;;;;;4.17;3.33;;;3.50;99.90;5.00;95460.00;;;;5088867;28;20745;-88
2023/01/09 08:57:18;;;;;;;3.57;3.27;;;3.70;99.90;5.10;95474.00;;;;5088960;28;20219;-88
2023/01/09 09:00:11;;;;;;;3.70;3.10;;;3.80;99.90;5.20;95487.00;;;;5092884;28;20578;-88
2023/01/09 09:03:01;;;;;;;4.77;3.60;;;3.80;99.90;5.30;95494.00;;;;5092113;28;20744;-88
2023/01/09 09:05:50;;;;;;;3.00;2.53;;;3.90;99.90;5.50;95496.00;;;;5092971;28;20242;-88
2023/01/09 09:08:39;;;;;;;6.23;3.93;;;3.90;99.90;5.60;95503.00;;;;5083177;28;20230;-88
2023/01/09 09:11:27;;;;;;;3.80;3.33;;;4.00;99.90;5.80;95506.00;;;;5090398;28;20207;-88
2023/01/09 09:17:24;;;;;;;4.80;3.27;;;4.20;99.90;5.90;95503.00;;;;5089825;28;20635;-88
2023/01/09 09:20:13;;;;;;;6.60;4.60;;;5.00;99.90;5.90;95501.00;;;;5089372;28;20191;-87
2023/01/09 09:23:02;;;;;;;9.03;4.83;;;4.30;99.90;5.90;95511.00;;;;5087643;28;20574;-88
2023/01/09 09:25:50;;;;;;;8.77;4.73;;;4.40;99.90;6.00;95516.00;;;;5088113;28;20195;-88
2023/01/09 09:28:39;;;;;;;11.77;6.27;;;4.40;99.90;6.10;95508.00;;;;5091361;28;20219;-88
2023/01/09 09:31:28;;;;;;;11.13;5.80;;;5.70;99.90;6.20;95505.00;;;;5092315;28;20195;-88
2023/01/09 09:34:18;;;;;;;10.60;6.70;;;4.50;99.90;6.20;95499.00;;;;5079412;28;20204;-88
2023/01/09 09:37:07;;;;;;;13.87;6.93;;;5.30;99.90;6.40;95505.00;;;;5090603;28;20230;-88
2023/01/09 09:39:56;;;;;;;11.00;9.73;;;4.70;99.90;6.40;95495.00;;;;5092206;28;20229;-87
2023/01/09 09:46:22;;;;;;;20.03;10.30;;;4.80;99.90;6.60;95488.00;;;;5088161;28;20292;-87
2023/01/09 09:49:19;;;;;;;12.73;9.47;;;4.80;99.90;6.50;95480.00;;;;5090397;28;20214;-88
2023/01/09 09:52:20;;;;;;;10.07;8.77;;;5.40;99.90;6.60;95488.00;;;;5086827;28;20253;-87
2023/01/09 09:55:18;;;;;;;10.60;7.60;;;5.00;99.90;6.70;95484.00;;;;5090828;28;20710;-87
2023/01/09 09:58:20;;;;;;;15.10;9.37;;;5.10;99.90;6.90;95480.00;;;;5083783;28;20581;-89
2023/01/09 10:01:15;;;;;;;11.10;9.03;;;5.20;99.90;7.00;95473.00;;;;5086023;28;20202;-88
2023/01/09 10:04:09;;;;;;;14.87;8.23;;;5.20;99.90;7.00;95475.00;;;;5088725;28;20223;-89
2023/01/09 10:07:04;;;;;;;14.80;8.77;;;5.30;99.90;6.90;95472.00;;;;5088317;28;20656;-91
2023/01/09 10:09:59;;;;;;;16.07;9.07;;;5.30;99.90;6.60;95469.00;;;;5088726;28;20195;-91
2023/01/09 10:12:54;;;;;;;16.43;7.43;;;5.40;99.90;6.50;95463.00;;;;5087249;28;20195;-90
2023/01/09 10:15:51;;;;;;;13.83;8.83;;;5.40;99.90;6.20;95462.00;;;;5091053;28;20206;-93
2023/01/09 10:18:53;;;;;;;11.70;7.80;;;5.50;99.90;6.30;95467.00;;;;5090262;28;20210;-91
2023/01/09 10:21:52;;;;;;;47.97;28.73;;;5.20;99.90;6.30;95464.00;;;;5091914;28;20279;-90
2023/01/09 10:25:05;;;;;;;25.40;16.77;;;5.10;99.90;6.40;95478.00;;;;5089598;28;20208;-91
2023/01/09 10:28:13;;;;;;;24.17;14.40;;;5.10;99.90;6.80;95469.00;;;;5084258;28;20245;-90
2023/01/09 10:31:11;;;;;;;23.37;13.93;;;5.20;99.90;6.90;95470.00;;;;5091336;28;20619;-90
2023/01/09 10:34:14;;;;;;;22.77;11.90;;;5.20;99.90;6.90;95475.00;;;;5090329;28;20209;-92
2023/01/09 10:37:10;;;;;;;17.47;11.23;;;5.30;99.90;6.70;95474.00;;;;5089707;28;20222;-90
2023/01/09 10:40:07;;;;;;;20.57;10.83;;;5.30;99.90;6.70;95460.00;;;;5076815;28;20208;-90
2023/01/09 10:43:03;;;;;;;12.77;9.27;;;6.60;99.90;6.80;95464.00;;;;5090301;28;20206;-90
2023/01/09 10:45:56;;;;;;;14.27;8.40;;;5.40;99.90;7.10;95459.00;;;;5080494;28;20214;-90
2023/01/09 10:48:50;;;;;;;12.27;7.43;;;5.40;99.90;7.10;95466.00;;;;5090826;28;20293;-90
2023/01/09 10:51:47;;;;;;;10.07;7.43;;;5.50;99.90;7.20;95447.00;;;;5089942;28;20210;-90
2023/01/09 10:54:42;;;;;;;13.03;7.07;;;5.60;99.90;7.10;95461.00;;;;5082013;28;20200;-91
2023/01/09 10:57:41;;;;;;;13.87;7.60;;;5.60;99.90;7.20;95462.00;;;;5082371;28;20263;-90
2023/01/09 11:00:30;;;;;;;7.37;6.43;;;5.70;99.90;7.30;95463.00;;;;5083360;28;20196;-92
2023/01/09 11:03:21;;;;;;;7.20;6.03;;;5.70;99.90;7.20;95463.00;;;;5085603;28;20203;-90
2023/01/09 11:06:22;;;;;;;8.07;5.20;;;5.80;99.90;7.30;95442.00;;;;5087123;28;20242;-92
2023/01/09 11:09:13;;;;;;;6.07;5.17;;;5.80;99.90;7.30;95444.00;;;;5083693;28;20266;-90
2023/01/09 11:12:24;;;;;;;8.67;6.70;;;5.80;99.90;7.40;95435.00;;;;5073351;28;20228;-93
2023/01/09 11:15:29;;;;;;;7.10;5.93;;;5.80;99.90;7.30;95441.00;;;;5080667;28;20200;-91
2023/01/09 11:18:23;;;;;;;11.63;5.90;;;5.90;99.90;7.40;95450.00;;;;5075491;28;20192;-90
2023/01/09 11:21:19;;;;;;;9.17;6.93;;;5.90;99.90;7.20;95462.00;;;;5088151;28;20206;-90
2023/01/09 11:24:30;;;;;;;9.07;6.87;;;5.90;99.90;7.20;95453.00;;;;5090391;28;20203;-91
2023/01/09 11:27:25;;;;;;;9.83;6.67;;;5.90;99.90;7.00;95440.00;;;;5084904;28;20232;-90
2023/01/09 11:30:22;;;;;;;11.73;7.37;;;5.90;99.90;7.30;95454.00;;;;5090915;28;20697;-90
2023/01/09 11:33:18;;;;;;;8.60;7.67;;;5.90;99.90;7.50;95449.00;;;;5079292;28;20204;-91
2023/01/09 11:36:12;;;;;;;8.97;7.17;;;5.90;99.90;7.40;95461.00;;;;5079644;28;20219;-90
2023/01/09 11:39:01;;;;;;;9.00;7.83;;;6.00;99.90;7.40;95453.00;;;;5089672;28;20294;-91
2023/01/09 11:41:54;;;;;;;10.83;7.47;;;6.00;99.90;7.50;95463.00;;;;5088656;28;20740;-91
2023/01/09 11:44:43;;;;;;;9.90;7.70;;;6.00;99.90;7.50;95443.00;;;;5090821;28;20649;-91
2023/01/09 11:47:40;;;;;;;10.87;7.70;;;6.00;99.90;7.50;95449.00;;;;5079005;28;20219;-90
2023/01/09 11:50:31;;;;;;;7.73;6.63;;;6.00;99.90;7.60;95449.00;;;;5077001;28;20210;-90
2023/01/09 11:53:21;;;;;;;12.80;7.03;;;6.10;99.90;7.70;95431.00;;;;5089220;28;20202;-90
2023/01/09 11:56:17;;;;;;;8.63;6.67;;;6.10;99.90;7.60;95425.00;;;;5090564;28;20257;-92
2023/01/09 11:59:11;;;;;;;12.70;7.10;;;6.10;99.90;7.50;95431.00;;;;5084357;28;20203;-91
2023/01/09 12:02:48;;;;;;;10.23;6.93;;;6.10;99.90;7.70;95443.00;;;;5087801;28;20617;-91
2023/01/09 12:05:48;;;;;;;10.47;7.47;;;6.10;99.90;7.80;95453.00;;;;5077143;28;20199;-90
2023/01/09 12:08:52;;;;;;;14.43;7.07;;;6.20;99.90;7.90;95439.00;;;;5087344;28;20276;-90
2023/01/09 12:11:47;;;;;;;14.10;7.13;;;6.20;99.90;7.80;95436.00;;;;5074566;28;20203;-90
2023/01/09 12:14:53;;;;;;;10.00;8.47;;;6.30;99.90;7.60;95434.00;;;;5089987;28;20280;-91
2023/01/09 12:18:08;;;;;;;11.37;7.87;;;6.20;99.90;7.90;95441.00;;;;5089544;28;20323;-91
2023/01/09 12:21:14;;;;;;;11.57;6.70;;;6.30;99.90;7.70;95436.00;;;;5088585;28;20307;-91
2023/01/09 12:24:52;;;;;;;7.63;6.43;;;6.30;99.90;7.70;95430.00;;;;5088826;28;20196;-91
2023/01/09 12:28:06;;;;;;;8.90;7.37;;;6.30;99.90;8.00;95429.00;;;;5005441;28;20249;-93
2023/01/09 12:31:12;;;;;;;8.13;5.77;;;6.40;99.90;7.80;95425.00;;;;5084555;28;20196;-91
2023/01/09 12:34:22;;;;;;;10.87;7.20;;;6.40;99.90;7.80;95419.00;;;;5087496;28;20453;-90
2023/01/09 12:37:35;;;;;;;11.10;6.53;;;6.30;99.90;7.90;95427.00;;;;5087841;28;20215;-92
2023/01/09 12:40:49;;;;;;;10.53;6.07;;;6.30;99.90;7.80;95412.00;;;;5084812;28;20203;-92
2023/01/09 12:43:53;;;;;;;11.73;8.43;;;6.40;99.90;7.70;95412.00;;;;5086019;28;20195;-91
2023/01/09 12:46:52;;;;;;;11.87;8.63;;;6.30;99.90;7.60;95415.00;;;;5093157;28;20231;-90
2023/01/09 12:49:51;;;;;;;9.57;8.03;;;6.40;99.90;7.90;95410.00;;;;5093163;28;20231;-90
2023/01/09 12:52:45;;;;;;;13.87;7.67;;;6.40;99.90;7.90;95410.00;;;;5092713;28;20210;-91
2023/01/09 12:55:39;;;;;;;6.80;6.07;;;6.40;99.90;8.00;95410.00;;;;5093967;28;20227;-90
2023/01/09 12:58:39;;;;;;;7.60;6.80;;;6.40;99.90;7.90;95419.00;;;;5089339;28;20203;-90
2023/01/09 13:01:34;;;;;;;8.83;7.30;;;6.40;99.90;7.90;95414.00;;;;5091035;28;20565;-91
2023/01/09 13:04:28;;;;;;;15.63;8.87;;;6.40;99.90;7.80;95427.00;;;;5093108;28;20210;-91
2023/01/09 13:07:23;;;;;;;8.03;6.50;;;6.40;99.90;7.80;95420.00;;;;5093341;28;20220;-91
2023/01/09 13:10:23;;;;;;;9.27;6.50;;;6.40;99.90;7.70;95434.00;;;;5092865;28;20231;-90
2023/01/09 13:13:20;;;;;;;9.10;5.43;;;6.40;99.90;7.70;95432.00;;;;5086285;28;20196;-90
2023/01/09 13:16:15;;;;;;;13.23;6.40;;;6.30;99.90;7.70;95446.00;;;;5092700;28;20265;-91
2023/01/09 13:19:11;;;;;;;7.57;5.37;;;6.30;99.90;7.60;95435.00;;;;5090606;28;20207;-91
2023/01/09 13:22:00;;;;;;;7.97;6.83;;;6.30;99.90;7.70;95442.00;;;;5092637;28;20278;-92